sensor_id;sensor_type;location;lat;lon;timestamp;pressure;altitude;pressure_sealevel;temperature;humidity
41947;BME280;27638;42.184;24.848;2022-07-23T00:00:07;99910.25;;;25.83;43.63
41947;BME280;27638;42.184;24.848;2022-07-23T00:02:33;99909.47;;;25.88;43.63
41947;BME280;27638;42.184;24.848;2022-07-23T00:04:58;99909.63;;;26.03;43.42
41947;BME280;27638;42.184;24.848;2022-07-23T00:07:24;99911.84;;;25.79;44.05
41947;BME280;27638;42.184;24.848;2022-07-23T00:09:49;99883.00;;;25.41;44.59
41947;BME280;27638;42.184;24.848;2022-07-23T00:12:14;99910.25;;;25.56;45.00
41947;BME280;27638;42.184;24.848;2022-07-23T00:14:39;99903.38;;;25.70;44.97
41947;BME280;27638;42.184;24.848;2022-07-23T00:17:05;99917.53;;;25.77;45.39
41947;BME280;27638;42.184;24.848;2022-07-23T00:19:30;99917.59;;;25.34;46.63
41947;BME280;27638;42.184;24.848;2022-07-23T00:21:55;99923.41;;;25.42;46.40
41947;BME280;27638;42.184;24.848;2022-07-23T00:24:21;99912.16;;;25.56;46.10
41947;BME280;27638;42.184;24.848;2022-07-23T00:26:46;99908.41;;;25.62;45.54
41947;BME280;27638;42.184;24.848;2022-07-23T00:29:11;99914.84;;;25.56;45.96
41947;BME280;27638;42.184;24.848;2022-07-23T00:31:37;99908.06;;;25.53;45.91
41947;BME280;27638;42.184;24.848;2022-07-23T00:34:02;99924.47;;;25.41;46.11
41947;BME280;27638;42.184;24.848;2022-07-23T00:36:28;99922.94;;;25.51;46.42
41947;BME280;27638;42.184;24.848;2022-07-23T00:38:53;99910.75;;;25.53;46.21
41947;BME280;27638;42.184;24.848;2022-07-23T00:41:19;99925.94;;;25.27;46.85
41947;BME280;27638;42.184;24.848;2022-07-23T00:43:44;99921.97;;;25.13;47.54
41947;BME280;27638;42.184;24.848;2022-07-23T00:46:09;99924.06;;;25.06;47.74
41947;BME280;27638;42.184;24.848;2022-07-23T00:48:34;99927.91;;;25.10;47.84
41947;BME280;27638;42.184;24.848;2022-07-23T00:51:00;99925.88;;;25.22;47.54
41947;BME280;27638;42.184;24.848;2022-07-23T00:53:25;99928.91;;;25.26;47.68
41947;BME280;27638;42.184;24.848;2022-07-23T00:55:50;99932.38;;;25.21;47.96
41947;BME280;27638;42.184;24.848;2022-07-23T00:58:16;99932.31;;;25.16;48.44
41947;BME280;27638;42.184;24.848;2022-07-23T01:00:41;99932.13;;;25.23;48.55
41947;BME280;27638;42.184;24.848;2022-07-23T01:03:07;99925.75;;;25.34;48.22
41947;BME280;27638;42.184;24.848;2022-07-23T01:05:32;99928.56;;;25.44;47.88
41947;BME280;27638;42.184;24.848;2022-07-23T01:07:58;99921.66;;;25.31;47.68
41947;BME280;27638;42.184;24.848;2022-07-23T01:10:23;99929.38;;;25.44;47.28
41947;BME280;27638;42.184;24.848;2022-07-23T01:13:02;99931.09;;;25.29;47.69
41947;BME280;27638;42.184;24.848;2022-07-23T01:15:28;99924.81;;;25.23;47.54
41947;BME280;27638;42.184;24.848;2022-07-23T01:17:54;99923.84;;;25.34;47.66
41947;BME280;27638;42.184;24.848;2022-07-23T01:20:19;99928.66;;;25.27;48.34
41947;BME280;27638;42.184;24.848;2022-07-23T01:22:44;99927.91;;;25.10;48.86
41947;BME280;27638;42.184;24.848;2022-07-23T01:25:10;99930.81;;;25.03;49.22
41947;BME280;27638;42.184;24.848;2022-07-23T01:27:35;99922.38;;;25.00;49.17
41947;BME280;27638;42.184;24.848;2022-07-23T01:30:01;99926.72;;;25.01;49.23
41947;BME280;27638;42.184;24.848;2022-07-23T01:32:26;99920.28;;;25.07;48.80
41947;BME280;27638;42.184;24.848;2022-07-23T01:34:51;99920.03;;;25.08;48.94
41947;BME280;27638;42.184;24.848;2022-07-23T01:37:17;99918.66;;;24.89;49.04
41947;BME280;27638;42.184;24.848;2022-07-23T01:39:42;99916.56;;;24.96;48.91
41947;BME280;27638;42.184;24.848;2022-07-23T01:42:07;99915.38;;;25.04;48.99
41947;BME280;27638;42.184;24.848;2022-07-23T01:44:33;99918.44;;;25.12;49.05
41947;BME280;27638;42.184;24.848;2022-07-23T01:46:58;99929.34;;;25.18;48.18
41947;BME280;27638;42.184;24.848;2022-07-23T01:49:23;99922.94;;;25.02;48.92
41947;BME280;27638;42.184;24.848;2022-07-23T01:51:48;99927.81;;;24.66;49.81
41947;BME280;27638;42.184;24.848;2022-07-23T01:54:26;99922.28;;;24.78;49.71
41947;BME280;27638;42.184;24.848;2022-07-23T01:56:52;99920.72;;;24.82;50.05
41947;BME280;27638;42.184;24.848;2022-07-23T01:59:17;99924.88;;;24.90;49.66
41947;BME280;27638;42.184;24.848;2022-07-23T02:01:42;99926.00;;;24.72;49.82
41947;BME280;27638;42.184;24.848;2022-07-23T02:04:07;99923.28;;;24.72;49.79
41947;BME280;27638;42.184;24.848;2022-07-23T02:06:33;99925.38;;;24.65;49.77
41947;BME280;27638;42.184;24.848;2022-07-23T02:08:58;99924.22;;;24.61;50.00
41947;BME280;27638;42.184;24.848;2022-07-23T02:11:23;99922.59;;;24.60;49.95
41947;BME280;27638;42.184;24.848;2022-07-23T02:13:49;99919.88;;;24.60;49.86
41947;BME280;27638;42.184;24.848;2022-07-23T02:16:14;99923.91;;;24.57;49.69
41947;BME280;27638;42.184;24.848;2022-07-23T02:18:39;99924.22;;;24.61;49.52
41947;BME280;27638;42.184;24.848;2022-07-23T02:21:04;99930.72;;;24.60;49.54
41947;BME280;27638;42.184;24.848;2022-07-23T02:23:30;99920.19;;;24.63;49.77
41947;BME280;27638;42.184;24.848;2022-07-23T02:25:55;99924.66;;;24.52;50.76
41947;BME280;27638;42.184;24.848;2022-07-23T02:28:20;99926.03;;;24.55;50.65
41947;BME280;27638;42.184;24.848;2022-07-23T02:30:45;99919.38;;;24.63;50.64
41947;BME280;27638;42.184;24.848;2022-07-23T02:33:11;99925.28;;;24.60;50.82
41947;BME280;27638;42.184;24.848;2022-07-23T02:35:36;99925.53;;;24.58;50.93
41947;BME280;27638;42.184;24.848;2022-07-23T02:38:01;99932.53;;;24.54;51.15
41947;BME280;27638;42.184;24.848;2022-07-23T02:40:26;99926.25;;;24.70;51.17
41947;BME280;27638;42.184;24.848;2022-07-23T02:42:52;99929.72;;;24.66;51.09
41947;BME280;27638;42.184;24.848;2022-07-23T02:45:17;99932.41;;;24.66;51.21
41947;BME280;27638;42.184;24.848;2022-07-23T02:47:42;99929.91;;;24.42;51.86
41947;BME280;27638;42.184;24.848;2022-07-23T02:50:08;99934.69;;;24.35;51.65
41947;BME280;27638;42.184;24.848;2022-07-23T02:52:33;99934.75;;;24.24;51.46
41947;BME280;27638;42.184;24.848;2022-07-23T02:54:58;99940.25;;;24.12;51.92
41947;BME280;27638;42.184;24.848;2022-07-23T02:57:24;99941.72;;;24.03;52.23
41947;BME280;27638;42.184;24.848;2022-07-23T02:59:49;99930.47;;;23.94;52.70
41947;BME280;27638;42.184;24.848;2022-07-23T03:02:14;99939.50;;;24.00;52.80
41947;BME280;27638;42.184;24.848;2022-07-23T03:04:39;99947.53;;;23.95;53.12
41947;BME280;27638;42.184;24.848;2022-07-23T03:07:07;99945.06;;;23.93;52.89
41947;BME280;27638;42.184;24.848;2022-07-23T03:09:32;99941.38;;;23.99;53.06
41947;BME280;27638;42.184;24.848;2022-07-23T03:11:57;99948.34;;;23.95;53.44
41947;BME280;27638;42.184;24.848;2022-07-23T03:14:23;99950.06;;;24.01;52.97
41947;BME280;27638;42.184;24.848;2022-07-23T03:16:49;99946.22;;;23.97;53.04
41947;BME280;27638;42.184;24.848;2022-07-23T03:19:15;99953.50;;;23.97;53.17
41947;BME280;27638;42.184;24.848;2022-07-23T03:21:40;99947.97;;;23.92;53.65
41947;BME280;27638;42.184;24.848;2022-07-23T03:24:08;99952.94;;;23.95;53.17
41947;BME280;27638;42.184;24.848;2022-07-23T03:26:34;99961.28;;;23.93;52.84
41947;BME280;27638;42.184;24.848;2022-07-23T03:29:00;99962.63;;;23.79;52.75
41947;BME280;27638;42.184;24.848;2022-07-23T03:31:26;99953.69;;;23.78;52.88
41947;BME280;27638;42.184;24.848;2022-07-23T03:33:51;99955.63;;;23.95;52.10
41947;BME280;27638;42.184;24.848;2022-07-23T03:36:16;99964.81;;;23.94;52.17
41947;BME280;27638;42.184;24.848;2022-07-23T03:42:11;99964.91;;;24.15;51.37
41947;BME280;27638;42.184;24.848;2022-07-23T03:44:36;99969.09;;;24.23;51.41
41947;BME280;27638;42.184;24.848;2022-07-23T03:47:03;99965.28;;;24.36;51.31
41947;BME280;27638;42.184;24.848;2022-07-23T03:49:28;99971.38;;;24.14;52.40
41947;BME280;27638;42.184;24.848;2022-07-23T03:51:53;99964.75;;;24.22;52.45
41947;BME280;27638;42.184;24.848;2022-07-23T03:54:19;99965.91;;;24.26;52.85
41947;BME280;27638;42.184;24.848;2022-07-23T03:56:44;99967.81;;;24.42;52.62
41947;BME280;27638;42.184;24.848;2022-07-23T03:59:09;99958.53;;;24.38;52.41
41947;BME280;27638;42.184;24.848;2022-07-23T04:01:35;99961.56;;;24.25;51.85
41947;BME280;27638;42.184;24.848;2022-07-23T04:04:01;99964.44;;;24.18;52.18
41947;BME280;27638;42.184;24.848;2022-07-23T04:06:27;99966.22;;;24.13;52.05
41947;BME280;27638;42.184;24.848;2022-07-23T04:08:52;99967.47;;;24.22;51.84
41947;BME280;27638;42.184;24.848;2022-07-23T04:11:18;99970.56;;;24.14;51.99
41947;BME280;27638;42.184;24.848;2022-07-23T04:13:43;99971.63;;;23.96;52.56
41947;BME280;27638;42.184;24.848;2022-07-23T04:16:08;99976.47;;;23.94;52.87
41947;BME280;27638;42.184;24.848;2022-07-23T04:18:34;99984.59;;;23.82;53.74
41947;BME280;27638;42.184;24.848;2022-07-23T04:20:59;99979.53;;;23.86;53.87
41947;BME280;27638;42.184;24.848;2022-07-23T04:23:24;99976.25;;;23.84;53.91
41947;BME280;27638;42.184;24.848;2022-07-23T04:25:50;99982.38;;;23.79;54.34
41947;BME280;27638;42.184;24.848;2022-07-23T04:28:15;99970.50;;;23.80;54.49
41947;BME280;27638;42.184;24.848;2022-07-23T04:30:40;99976.47;;;24.11;53.88
41947;BME280;27638;42.184;24.848;2022-07-23T04:33:06;99975.75;;;24.15;53.59
41947;BME280;27638;42.184;24.848;2022-07-23T04:35:35;99975.03;;;24.54;52.62
41947;BME280;27638;42.184;24.848;2022-07-23T04:38:00;99972.97;;;24.44;53.34
41947;BME280;27638;42.184;24.848;2022-07-23T04:40:26;99977.59;;;24.82;52.00
41947;BME280;27638;42.184;24.848;2022-07-23T04:42:52;99978.06;;;24.96;52.15
41947;BME280;27638;42.184;24.848;2022-07-23T04:45:17;99978.31;;;24.94;51.90
41947;BME280;27638;42.184;24.848;2022-07-23T04:47:42;99969.81;;;25.02;52.31
41947;BME280;27638;42.184;24.848;2022-07-23T04:50:08;99969.31;;;25.27;51.29
41947;BME280;27638;42.184;24.848;2022-07-23T04:52:33;99963.13;;;25.32;51.05
41947;BME280;27638;42.184;24.848;2022-07-23T04:54:58;99973.00;;;25.43;50.32
41947;BME280;27638;42.184;24.848;2022-07-23T04:57:24;99973.50;;;25.40;50.42
41947;BME280;27638;42.184;24.848;2022-07-23T04:59:49;99978.31;;;25.82;49.25
41947;BME280;27638;42.184;24.848;2022-07-23T05:02:14;99973.72;;;26.09;48.84
41947;BME280;27638;42.184;24.848;2022-07-23T05:04:40;99969.50;;;26.23;48.12
41947;BME280;27638;42.184;24.848;2022-07-23T05:07:05;99981.06;;;26.40;47.99
41947;BME280;27638;42.184;24.848;2022-07-23T05:09:30;99972.56;;;26.69;47.44
41947;BME280;27638;42.184;24.848;2022-07-23T05:11:56;99975.34;;;26.79;46.71
41947;BME280;27638;42.184;24.848;2022-07-23T05:14:22;99969.31;;;27.09;45.62
41947;BME280;27638;42.184;24.848;2022-07-23T05:16:47;99970.78;;;27.37;45.19
41947;BME280;27638;42.184;24.848;2022-07-23T05:19:13;99975.53;;;27.77;44.20
41947;BME280;27638;42.184;24.848;2022-07-23T05:21:38;99968.75;;;27.80;43.58
41947;BME280;27638;42.184;24.848;2022-07-23T05:24:04;99964.66;;;27.87;43.62
41947;BME280;27638;42.184;24.848;2022-07-23T05:26:29;99962.22;;;27.86;42.13
41947;BME280;27638;42.184;24.848;2022-07-23T05:28:55;99959.47;;;27.65;42.11
41947;BME280;27638;42.184;24.848;2022-07-23T05:31:20;99960.03;;;27.78;42.18
41947;BME280;27638;42.184;24.848;2022-07-23T05:33:45;99969.03;;;27.93;41.53
41947;BME280;27638;42.184;24.848;2022-07-23T05:36:11;99957.88;;;28.00;40.78
41947;BME280;27638;42.184;24.848;2022-07-23T05:38:36;99961.13;;;28.02;41.38
41947;BME280;27638;42.184;24.848;2022-07-23T05:41:02;99969.09;;;28.34;40.60
41947;BME280;27638;42.184;24.848;2022-07-23T05:43:27;99959.81;;;28.50;40.37
41947;BME280;27638;42.184;24.848;2022-07-23T05:45:53;99955.94;;;28.82;39.54
41947;BME280;27638;42.184;24.848;2022-07-23T05:48:19;99964.91;;;28.98;39.14
41947;BME280;27638;42.184;24.848;2022-07-23T05:50:44;99956.63;;;29.28;38.97
41947;BME280;27638;42.184;24.848;2022-07-23T05:53:09;99959.31;;;29.38;39.02
41947;BME280;27638;42.184;24.848;2022-07-23T05:55:35;99959.50;;;29.57;38.02
41947;BME280;27638;42.184;24.848;2022-07-23T05:58:00;99958.69;;;29.57;38.60
41947;BME280;27638;42.184;24.848;2022-07-23T06:00:26;99958.69;;;29.57;38.51
41947;BME280;27638;42.184;24.848;2022-07-23T06:02:52;99960.94;;;29.39;38.37
41947;BME280;27638;42.184;24.848;2022-07-23T06:05:17;99960.53;;;29.66;38.18
41947;BME280;27638;42.184;24.848;2022-07-23T06:07:43;99949.53;;;30.15;36.89
41947;BME280;27638;42.184;24.848;2022-07-23T06:10:08;99953.84;;;30.27;36.54
41947;BME280;27638;42.184;24.848;2022-07-23T06:12:34;99958.06;;;30.09;35.54
41947;BME280;27638;42.184;24.848;2022-07-23T06:15:00;99959.16;;;30.08;36.37
41947;BME280;27638;42.184;24.848;2022-07-23T06:17:26;99948.56;;;30.35;35.70
41947;BME280;27638;42.184;24.848;2022-07-23T06:19:52;99945.50;;;30.71;35.32
41947;BME280;27638;42.184;24.848;2022-07-23T06:22:17;99952.97;;;30.89;35.15
41947;BME280;27638;42.184;24.848;2022-07-23T06:24:42;99947.31;;;30.80;34.32
41947;BME280;27638;42.184;24.848;2022-07-23T06:27:08;99951.69;;;30.81;34.42
41947;BME280;27638;42.184;24.848;2022-07-23T06:29:33;99950.03;;;31.04;33.64
41947;BME280;27638;42.184;24.848;2022-07-23T06:31:58;99952.34;;;31.21;33.76
41947;BME280;27638;42.184;24.848;2022-07-23T06:34:24;99957.13;;;31.53;33.13
41947;BME280;27638;42.184;24.848;2022-07-23T06:36:49;99947.53;;;31.74;32.79
41947;BME280;27638;42.184;24.848;2022-07-23T06:39:15;99945.81;;;31.79;32.69
41947;BME280;27638;42.184;24.848;2022-07-23T06:41:40;99949.22;;;31.70;33.48
41947;BME280;27638;42.184;24.848;2022-07-23T06:44:05;99952.59;;;32.00;32.58
41947;BME280;27638;42.184;24.848;2022-07-23T06:46:31;99955.25;;;32.05;33.19
41947;BME280;27638;42.184;24.848;2022-07-23T06:48:56;99950.81;;;32.28;32.28
41947;BME280;27638;42.184;24.848;2022-07-23T06:51:21;99944.25;;;32.56;31.87
41947;BME280;27638;42.184;24.848;2022-07-23T06:53:47;99935.06;;;32.80;31.60
41947;BME280;27638;42.184;24.848;2022-07-23T06:56:12;99934.94;;;32.71;31.83
41947;BME280;27638;42.184;24.848;2022-07-23T06:58:37;99928.84;;;33.15;31.07
41947;BME280;27638;42.184;24.848;2022-07-23T07:01:03;99925.47;;;33.46;30.58
41947;BME280;27638;42.184;24.848;2022-07-23T07:03:28;99935.13;;;33.57;29.86
41947;BME280;27638;42.184;24.848;2022-07-23T07:05:53;99926.81;;;33.71;29.70
41947;BME280;27638;42.184;24.848;2022-07-23T07:08:19;99930.97;;;33.82;29.60
41947;BME280;27638;42.184;24.848;2022-07-23T07:10:44;99919.94;;;33.59;29.57
41947;BME280;27638;42.184;24.848;2022-07-23T07:13:09;99918.16;;;33.77;29.15
41947;BME280;27638;42.184;24.848;2022-07-23T07:15:35;99918.91;;;34.14;29.23
41947;BME280;27638;42.184;24.848;2022-07-23T07:18:00;99915.78;;;34.07;28.55
41947;BME280;27638;42.184;24.848;2022-07-23T07:20:26;99911.22;;;34.24;28.55
41947;BME280;27638;42.184;24.848;2022-07-23T07:22:51;99909.16;;;34.52;28.29
41947;BME280;27638;42.184;24.848;2022-07-23T07:25:17;99902.69;;;34.57;28.79
41947;BME280;27638;42.184;24.848;2022-07-23T07:27:43;99903.66;;;35.01;27.89
41947;BME280;27638;42.184;24.848;2022-07-23T07:30:09;99897.19;;;35.05;27.77
41947;BME280;27638;42.184;24.848;2022-07-23T07:32:34;99906.94;;;35.29;27.29
41947;BME280;27638;42.184;24.848;2022-07-23T07:35:02;99896.47;;;35.39;26.11
41947;BME280;27638;42.184;24.848;2022-07-23T07:37:27;99905.22;;;35.41;25.85
41947;BME280;27638;42.184;24.848;2022-07-23T07:39:53;99903.94;;;35.56;25.78
41947;BME280;27638;42.184;24.848;2022-07-23T07:42:18;99895.69;;;35.56;26.05
41947;BME280;27638;42.184;24.848;2022-07-23T07:44:43;99901.34;;;35.68;25.70
41947;BME280;27638;42.184;24.848;2022-07-23T07:47:09;99893.88;;;35.86;25.93
41947;BME280;27638;42.184;24.848;2022-07-23T07:49:34;99896.31;;;35.79;24.85
41947;BME280;27638;42.184;24.848;2022-07-23T07:51:59;99878.50;;;35.85;24.79
41947;BME280;27638;42.184;24.848;2022-07-23T07:54:24;99888.03;;;35.96;24.27
41947;BME280;27638;42.184;24.848;2022-07-23T07:56:50;99884.13;;;36.06;24.02
41947;BME280;27638;42.184;24.848;2022-07-23T07:59:15;99889.66;;;35.71;24.10
41947;BME280;27638;42.184;24.848;2022-07-23T08:01:41;99886.75;;;35.50;23.92
41947;BME280;27638;42.184;24.848;2022-07-23T08:04:06;99882.53;;;35.79;24.40
41947;BME280;27638;42.184;24.848;2022-07-23T08:06:31;99883.97;;;36.02;24.36
41947;BME280;27638;42.184;24.848;2022-07-23T08:08:57;99889.13;;;36.12;24.37
41947;BME280;27638;42.184;24.848;2022-07-23T08:11:22;99877.56;;;36.28;23.63
41947;BME280;27638;42.184;24.848;2022-07-23T08:13:47;99867.38;;;36.20;23.78
41947;BME280;27638;42.184;24.848;2022-07-23T08:16:13;99879.47;;;35.89;24.08
41947;BME280;27638;42.184;24.848;2022-07-23T08:18:38;99868.56;;;36.01;23.84
41947;BME280;27638;42.184;24.848;2022-07-23T08:21:03;99862.19;;;36.18;22.76
41947;BME280;27638;42.184;24.848;2022-07-23T08:23:30;99860.09;;;36.15;23.62
41947;BME280;27638;42.184;24.848;2022-07-23T08:25:56;99856.81;;;36.30;23.26
41947;BME280;27638;42.184;24.848;2022-07-23T08:28:21;99848.13;;;36.58;22.51
41947;BME280;27638;42.184;24.848;2022-07-23T08:30:47;99848.41;;;36.65;22.24
41947;BME280;27638;42.184;24.848;2022-07-23T08:33:14;99839.09;;;36.49;22.65
41947;BME280;27638;42.184;24.848;2022-07-23T08:35:41;99843.38;;;36.67;21.93
41947;BME280;27638;42.184;24.848;2022-07-23T08:38:08;99843.91;;;36.60;22.67
41947;BME280;27638;42.184;24.848;2022-07-23T08:40:36;99845.03;;;36.59;22.86
41947;BME280;27638;42.184;24.848;2022-07-23T08:43:04;99836.63;;;36.85;21.63
41947;BME280;27638;42.184;24.848;2022-07-23T08:45:30;99832.19;;;36.63;22.66
41947;BME280;27638;42.184;24.848;2022-07-23T08:47:57;99833.28;;;36.71;22.17
41947;BME280;27638;42.184;24.848;2022-07-23T08:50:25;99824.00;;;36.75;22.11
41947;BME280;27638;42.184;24.848;2022-07-23T08:52:51;99828.69;;;36.84;21.77
41947;BME280;27638;42.184;24.848;2022-07-23T08:55:17;99831.53;;;36.96;22.25
41947;BME280;27638;42.184;24.848;2022-07-23T08:57:43;99824.88;;;36.97;21.52
41947;BME280;27638;42.184;24.848;2022-07-23T09:00:09;99828.16;;;37.11;21.48
41947;BME280;27638;42.184;24.848;2022-07-23T09:02:38;99826.34;;;37.15;21.25
41947;BME280;27638;42.184;24.848;2022-07-23T09:05:04;99820.25;;;37.30;22.47
41947;BME280;27638;42.184;24.848;2022-07-23T09:07:29;99817.06;;;37.20;22.55
41947;BME280;27638;42.184;24.848;2022-07-23T09:10:08;99812.78;;;37.64;22.50
41947;BME280;27638;42.184;24.848;2022-07-23T09:12:34;99814.03;;;37.33;21.42
41947;BME280;27638;42.184;24.848;2022-07-23T09:15:06;99813.28;;;37.45;22.37
41947;BME280;27638;42.184;24.848;2022-07-23T09:17:37;99810.22;;;37.47;21.35
41947;BME280;27638;42.184;24.848;2022-07-23T09:20:13;99815.97;;;37.75;21.44
41947;BME280;27638;42.184;24.848;2022-07-23T09:22:38;99809.50;;;37.70;20.89
41947;BME280;27638;42.184;24.848;2022-07-23T09:25:06;99813.53;;;37.73;20.44
41947;BME280;27638;42.184;24.848;2022-07-23T09:27:52;99809.66;;;37.98;19.05
41947;BME280;27638;42.184;24.848;2022-07-23T09:30:18;99805.03;;;37.78;19.21
41947;BME280;27638;42.184;24.848;2022-07-23T09:32:43;99803.66;;;37.51;20.64
41947;BME280;27638;42.184;24.848;2022-07-23T09:35:09;99802.63;;;37.56;20.91
41947;BME280;27638;42.184;24.848;2022-07-23T09:37:34;99795.50;;;37.34;20.81
41947;BME280;27638;42.184;24.848;2022-07-23T09:40:07;99792.28;;;37.32;21.45
41947;BME280;27638;42.184;24.848;2022-07-23T09:42:33;99799.56;;;37.36;21.77
41947;BME280;27638;42.184;24.848;2022-07-23T09:44:59;99789.78;;;37.39;19.97
41947;BME280;27638;42.184;24.848;2022-07-23T09:47:25;99783.66;;;37.33;20.44
41947;BME280;27638;42.184;24.848;2022-07-23T09:52:26;99781.28;;;37.44;20.26
41947;BME280;27638;42.184;24.848;2022-07-23T09:54:51;99786.03;;;37.23;21.49
41947;BME280;27638;42.184;24.848;2022-07-23T09:57:22;99782.38;;;37.31;19.96
41947;BME280;27638;42.184;24.848;2022-07-23T09:59:47;99778.13;;;37.33;20.64
41947;BME280;27638;42.184;24.848;2022-07-23T10:02:13;99771.53;;;37.26;19.10
41947;BME280;27638;42.184;24.848;2022-07-23T10:04:39;99781.03;;;37.37;19.20
41947;BME280;27638;42.184;24.848;2022-07-23T10:07:06;99776.19;;;37.13;18.13
41947;BME280;27638;42.184;24.848;2022-07-23T10:09:34;99771.41;;;36.81;19.55
41947;BME280;27638;42.184;24.848;2022-07-23T10:12:01;99765.75;;;36.77;18.53
41947;BME280;27638;42.184;24.848;2022-07-23T10:14:39;99768.34;;;36.73;17.88
41947;BME280;27638;42.184;24.848;2022-07-23T10:17:05;99753.78;;;36.94;19.16
41947;BME280;27638;42.184;24.848;2022-07-23T10:19:31;99755.06;;;36.96;20.27
41947;BME280;27638;42.184;24.848;2022-07-23T10:22:09;99752.78;;;36.78;20.07
41947;BME280;27638;42.184;24.848;2022-07-23T10:27:12;99754.66;;;37.06;19.41
41947;BME280;27638;42.184;24.848;2022-07-23T10:32:17;99750.69;;;36.95;18.86
41947;BME280;27638;42.184;24.848;2022-07-23T10:34:58;99745.75;;;37.01;17.57
41947;BME280;27638;42.184;24.848;2022-07-23T10:37:39;99731.56;;;36.90;18.89
41947;BME280;27638;42.184;24.848;2022-07-23T10:40:12;99742.81;;;36.85;18.15
41947;BME280;27638;42.184;24.848;2022-07-23T10:42:38;99739.69;;;36.66;19.15
41947;BME280;27638;42.184;24.848;2022-07-23T10:47:48;99728.34;;;36.88;19.44
41947;BME280;27638;42.184;24.848;2022-07-23T10:50:17;99725.91;;;36.87;17.73
41947;BME280;27638;42.184;24.848;2022-07-23T10:52:42;99719.84;;;36.93;18.30
41947;BME280;27638;42.184;24.848;2022-07-23T10:57:53;99718.53;;;36.79;17.21
41947;BME280;27638;42.184;24.848;2022-07-23T11:00:26;99707.41;;;36.87;17.41
41947;BME280;27638;42.184;24.848;2022-07-23T11:02:52;99702.09;;;36.82;19.13
41947;BME280;27638;42.184;24.848;2022-07-23T11:05:19;99699.72;;;36.72;19.03
41947;BME280;27638;42.184;24.848;2022-07-23T11:10:35;99701.84;;;37.08;18.76
41947;BME280;27638;42.184;24.848;2022-07-23T11:31:53;99671.78;;;36.94;18.89
41947;BME280;27638;42.184;24.848;2022-07-23T11:37:03;99677.59;;;36.81;18.00
41947;BME280;27638;42.184;24.848;2022-07-23T11:39:29;99680.38;;;36.81;17.60
41947;BME280;27638;42.184;24.848;2022-07-23T11:41:55;99675.69;;;36.93;18.10
41947;BME280;27638;42.184;24.848;2022-07-23T11:44:39;99671.00;;;36.94;17.97
41947;BME280;27638;42.184;24.848;2022-07-23T11:47:05;99669.41;;;37.05;17.03
41947;BME280;27638;42.184;24.848;2022-07-23T11:49:31;99664.03;;;37.08;17.50
41947;BME280;27638;42.184;24.848;2022-07-23T11:52:09;99664.81;;;37.09;17.69
41947;BME280;27638;42.184;24.848;2022-07-23T11:54:36;99661.94;;;37.05;17.56
41947;BME280;27638;42.184;24.848;2022-07-23T11:57:02;99657.94;;;37.15;17.94
41947;BME280;27638;42.184;24.848;2022-07-23T11:59:32;99652.00;;;37.25;16.66
41947;BME280;27638;42.184;24.848;2022-07-23T12:01:58;99651.00;;;37.42;16.39
41947;BME280;27638;42.184;24.848;2022-07-23T12:04:25;99647.81;;;37.19;17.19
41947;BME280;27638;42.184;24.848;2022-07-23T12:06:50;99645.25;;;37.02;17.00
41947;BME280;27638;42.184;24.848;2022-07-23T12:09:16;99654.47;;;37.06;16.54
41947;BME280;27638;42.184;24.848;2022-07-23T12:11:59;99646.44;;;37.13;16.78
41947;BME280;27638;42.184;24.848;2022-07-23T12:14:25;99643.56;;;37.09;16.75
41947;BME280;27638;42.184;24.848;2022-07-23T12:17:06;99640.50;;;37.23;16.99
41947;BME280;27638;42.184;24.848;2022-07-23T12:19:32;99629.88;;;37.13;16.73
41947;BME280;27638;42.184;24.848;2022-07-23T12:21:57;99624.47;;;37.17;17.67
41947;BME280;27638;42.184;24.848;2022-07-23T12:24:23;99624.88;;;37.27;17.20
41947;BME280;27638;42.184;24.848;2022-07-23T12:29:35;99621.38;;;37.18;17.17
41947;BME280;27638;42.184;24.848;2022-07-23T12:32:01;99609.91;;;37.28;17.66
41947;BME280;27638;42.184;24.848;2022-07-23T12:34:26;99607.84;;;37.25;17.40
41947;BME280;27638;42.184;24.848;2022-07-23T12:36:52;99600.34;;;37.26;17.50
41947;BME280;27638;42.184;24.848;2022-07-23T12:39:30;99598.75;;;37.37;16.00
41947;BME280;27638;42.184;24.848;2022-07-23T12:41:56;99593.84;;;37.55;17.16
41947;BME280;27638;42.184;24.848;2022-07-23T12:44:21;99591.44;;;37.53;16.62
41947;BME280;27638;42.184;24.848;2022-07-23T12:46:50;99592.22;;;37.54;17.25
41947;BME280;27638;42.184;24.848;2022-07-23T12:49:25;99593.28;;;37.49;16.40
41947;BME280;27638;42.184;24.848;2022-07-23T12:51:50;99584.59;;;37.38;16.55
41947;BME280;27638;42.184;24.848;2022-07-23T12:54:16;99576.72;;;37.16;18.04
41947;BME280;27638;42.184;24.848;2022-07-23T12:56:44;99578.28;;;37.38;17.69
41947;BME280;27638;42.184;24.848;2022-07-23T12:59:10;99588.25;;;37.18;17.62
41947;BME280;27638;42.184;24.848;2022-07-23T13:01:37;99576.97;;;37.11;16.58
41947;BME280;27638;42.184;24.848;2022-07-23T13:04:07;99574.56;;;37.22;17.16
41947;BME280;27638;42.184;24.848;2022-07-23T13:06:40;99565.00;;;37.19;17.51
41947;BME280;27638;42.184;24.848;2022-07-23T13:09:07;99566.38;;;37.13;17.10
41947;BME280;27638;42.184;24.848;2022-07-23T13:11:32;99548.19;;;37.00;17.55
41947;BME280;27638;42.184;24.848;2022-07-23T13:13:58;99559.53;;;37.31;18.08
41947;BME280;27638;42.184;24.848;2022-07-23T13:16:25;99559.47;;;37.19;18.25
41947;BME280;27638;42.184;24.848;2022-07-23T13:18:50;99559.47;;;37.19;17.22
41947;BME280;27638;42.184;24.848;2022-07-23T13:21:16;99564.06;;;37.15;17.73
41947;BME280;27638;42.184;24.848;2022-07-23T13:23:41;99554.56;;;37.25;16.87
41947;BME280;27638;42.184;24.848;2022-07-23T13:26:07;99559.41;;;37.28;17.17
41947;BME280;27638;42.184;24.848;2022-07-23T13:28:32;99558.31;;;37.08;17.60